sensor_id;sensor_type;location;lat;lon;timestamp;P1;durP1;ratioP1;P2;durP2;ratioP2
11121;SDS011;5615;49.304;10.576;2023-04-03T00:01:15;3.63;;;3.00;;
11121;SDS011;5615;49.304;10.576;2023-04-03T00:03:42;4.23;;;3.20;;
11121;SDS011;5615;49.304;10.576;2023-04-03T00:06:10;3.17;;;2.60;;
11121;SDS011;5615;49.304;10.576;2023-04-03T00:08:37;3.57;;;2.60;;
11121;SDS011;5615;49.304;10.576;2023-04-03T00:11:05;3.97;;;2.63;;
11121;SDS011;5615;49.304;10.576;2023-04-03T00:13:32;3.07;;;2.77;;
11121;SDS011;5615;49.304;10.576;2023-04-03T00:15:59;3.10;;;2.90;;
11121;SDS011;5615;49.304;10.576;2023-04-03T00:18:26;4.07;;;3.20;;
11121;SDS011;5615;49.304;10.576;2023-04-03T00:20:53;3.07;;;2.77;;
11121;SDS011;5615;49.304;10.576;2023-04-03T00:23:21;4.03;;;2.90;;
11121;SDS011;5615;49.304;10.576;2023-04-03T00:25:48;5.33;;;2.90;;
11121;SDS011;5615;49.304;10.576;2023-04-03T00:28:15;2.97;;;2.70;;
11121;SDS011;5615;49.304;10.576;2023-04-03T00:30:42;3.53;;;2.50;;
11121;SDS011;5615;49.304;10.576;2023-04-03T00:33:08;4.20;;;3.00;;
11121;SDS011;5615;49.304;10.576;2023-04-03T00:35:37;3.53;;;3.10;;
11121;SDS011;5615;49.304;10.576;2023-04-03T00:38:03;4.00;;;3.00;;
11121;SDS011;5615;49.304;10.576;2023-04-03T00:40:34;3.50;;;3.20;;
11121;SDS011;5615;49.304;10.576;2023-04-03T00:43:02;3.77;;;3.10;;
11121;SDS011;5615;49.304;10.576;2023-04-03T00:45:37;3.30;;;2.87;;
11121;SDS011;5615;49.304;10.576;2023-04-03T00:48:06;3.30;;;2.93;;
11121;SDS011;5615;49.304;10.576;2023-04-03T00:50:35;7.40;;;3.13;;
11121;SDS011;5615;49.304;10.576;2023-04-03T00:53:04;3.50;;;3.03;;
11121;SDS011;5615;49.304;10.576;2023-04-03T00:55:33;3.13;;;2.83;;
11121;SDS011;5615;49.304;10.576;2023-04-03T00:58:01;4.67;;;3.17;;
11121;SDS011;5615;49.304;10.576;2023-04-03T01:00:28;3.70;;;2.90;;
11121;SDS011;5615;49.304;10.576;2023-04-03T01:02:55;4.67;;;2.90;;
11121;SDS011;5615;49.304;10.576;2023-04-03T01:05:22;3.10;;;2.80;;
11121;SDS011;5615;49.304;10.576;2023-04-03T01:07:49;3.77;;;3.07;;
11121;SDS011;5615;49.304;10.576;2023-04-03T01:10:17;3.27;;;2.80;;
11121;SDS011;5615;49.304;10.576;2023-04-03T01:12:48;3.07;;;2.87;;
11121;SDS011;5615;49.304;10.576;2023-04-03T01:15:17;3.60;;;3.30;;
11121;SDS011;5615;49.304;10.576;2023-04-03T01:17:46;3.57;;;2.97;;
11121;SDS011;5615;49.304;10.576;2023-04-03T01:20:20;3.80;;;3.00;;
11121;SDS011;5615;49.304;10.576;2023-04-03T01:23:06;4.77;;;3.47;;
11121;SDS011;5615;49.304;10.576;2023-04-03T01:25:48;3.60;;;2.93;;
11121;SDS011;5615;49.304;10.576;2023-04-03T01:28:17;3.23;;;2.93;;
11121;SDS011;5615;49.304;10.576;2023-04-03T01:30:46;5.60;;;3.63;;
11121;SDS011;5615;49.304;10.576;2023-04-03T01:33:18;4.63;;;3.53;;
11121;SDS011;5615;49.304;10.576;2023-04-03T01:35:45;3.53;;;2.97;;
11121;SDS011;5615;49.304;10.576;2023-04-03T01:38:12;5.10;;;3.30;;
11121;SDS011;5615;49.304;10.576;2023-04-03T01:40:38;3.80;;;3.40;;
11121;SDS011;5615;49.304;10.576;2023-04-03T01:43:05;3.90;;;3.00;;
11121;SDS011;5615;49.304;10.576;2023-04-03T01:45:32;3.67;;;3.30;;
11121;SDS011;5615;49.304;10.576;2023-04-03T01:47:59;4.23;;;3.20;;
11121;SDS011;5615;49.304;10.576;2023-04-03T01:50:26;3.67;;;3.10;;
11121;SDS011;5615;49.304;10.576;2023-04-03T01:52:53;4.00;;;3.33;;
11121;SDS011;5615;49.304;10.576;2023-04-03T01:55:20;3.90;;;3.43;;
11121;SDS011;5615;49.304;10.576;2023-04-03T01:57:46;3.60;;;3.30;;
11121;SDS011;5615;49.304;10.576;2023-04-03T02:00:13;4.73;;;3.20;;
11121;SDS011;5615;49.304;10.576;2023-04-03T02:02:41;3.60;;;3.20;;
11121;SDS011;5615;49.304;10.576;2023-04-03T02:05:08;4.80;;;3.27;;
11121;SDS011;5615;49.304;10.576;2023-04-03T02:07:36;3.77;;;3.30;;
11121;SDS011;5615;49.304;10.576;2023-04-03T02:10:03;3.43;;;3.13;;
11121;SDS011;5615;49.304;10.576;2023-04-03T02:12:30;3.30;;;3.00;;
11121;SDS011;5615;49.304;10.576;2023-04-03T02:14:57;3.90;;;3.20;;
11121;SDS011;5615;49.304;10.576;2023-04-03T02:17:23;3.63;;;3.20;;
11121;SDS011;5615;49.304;10.576;2023-04-03T02:19:50;4.13;;;3.10;;
11121;SDS011;5615;49.304;10.576;2023-04-03T02:22:17;4.93;;;3.80;;
11121;SDS011;5615;49.304;10.576;2023-04-03T02:24:45;6.30;;;3.13;;
11121;SDS011;5615;49.304;10.576;2023-04-03T02:27:12;4.87;;;3.43;;
11121;SDS011;5615;49.304;10.576;2023-04-03T02:29:38;3.00;;;2.70;;
11121;SDS011;5615;49.304;10.576;2023-04-03T02:32:05;3.87;;;3.57;;
11121;SDS011;5615;49.304;10.576;2023-04-03T02:34:31;3.50;;;3.17;;
11121;SDS011;5615;49.304;10.576;2023-04-03T02:36:59;3.90;;;3.27;;
11121;SDS011;5615;49.304;10.576;2023-04-03T02:39:26;3.40;;;3.10;;
11121;SDS011;5615;49.304;10.576;2023-04-03T02:41:54;4.03;;;3.17;;
11121;SDS011;5615;49.304;10.576;2023-04-03T02:44:21;3.50;;;3.20;;
11121;SDS011;5615;49.304;10.576;2023-04-03T02:46:48;3.70;;;3.17;;
11121;SDS011;5615;49.304;10.576;2023-04-03T02:49:15;4.50;;;3.03;;
11121;SDS011;5615;49.304;10.576;2023-04-03T02:51:41;3.57;;;3.20;;
11121;SDS011;5615;49.304;10.576;2023-04-03T02:54:08;3.30;;;3.00;;
11121;SDS011;5615;49.304;10.576;2023-04-03T02:56:34;3.47;;;3.17;;
11121;SDS011;5615;49.304;10.576;2023-04-03T02:59:03;3.20;;;2.90;;
11121;SDS011;5615;49.304;10.576;2023-04-03T03:01:30;4.53;;;3.07;;
11121;SDS011;5615;49.304;10.576;2023-04-03T03:03:57;3.47;;;2.90;;
11121;SDS011;5615;49.304;10.576;2023-04-03T03:06:25;3.30;;;3.00;;
11121;SDS011;5615;49.304;10.576;2023-04-03T03:08:51;4.43;;;3.43;;
11121;SDS011;5615;49.304;10.576;2023-04-03T03:11:18;4.17;;;3.43;;
11121;SDS011;5615;49.304;10.576;2023-04-03T03:13:44;3.97;;;3.40;;
11121;SDS011;5615;49.304;10.576;2023-04-03T03:16:13;3.20;;;2.90;;
11121;SDS011;5615;49.304;10.576;2023-04-03T03:18:39;3.20;;;2.70;;
11121;SDS011;5615;49.304;10.576;2023-04-03T03:21:06;5.80;;;3.37;;
11121;SDS011;5615;49.304;10.576;2023-04-03T03:23:32;7.07;;;3.20;;
11121;SDS011;5615;49.304;10.576;2023-04-03T03:26:00;3.70;;;3.00;;
11121;SDS011;5615;49.304;10.576;2023-04-03T03:28:28;4.13;;;3.10;;
11121;SDS011;5615;49.304;10.576;2023-04-03T03:30:56;4.63;;;2.93;;
11121;SDS011;5615;49.304;10.576;2023-04-03T03:33:24;4.07;;;3.20;;
11121;SDS011;5615;49.304;10.576;2023-04-03T03:35:51;4.40;;;3.17;;
11121;SDS011;5615;49.304;10.576;2023-04-03T03:38:17;3.20;;;2.90;;
11121;SDS011;5615;49.304;10.576;2023-04-03T03:40:44;5.87;;;3.43;;
11121;SDS011;5615;49.304;10.576;2023-04-03T03:43:12;4.70;;;3.33;;
11121;SDS011;5615;49.304;10.576;2023-04-03T03:45:39;4.27;;;3.30;;
11121;SDS011;5615;49.304;10.576;2023-04-03T03:48:05;4.40;;;3.23;;
11121;SDS011;5615;49.304;10.576;2023-04-03T03:50:33;3.77;;;3.20;;
11121;SDS011;5615;49.304;10.576;2023-04-03T03:53:00;7.33;;;3.40;;
11121;SDS011;5615;49.304;10.576;2023-04-03T03:55:26;3.93;;;3.50;;
11121;SDS011;5615;49.304;10.576;2023-04-03T03:57:53;3.73;;;3.30;;
11121;SDS011;5615;49.304;10.576;2023-04-03T04:00:20;4.70;;;3.63;;
11121;SDS011;5615;49.304;10.576;2023-04-03T04:02:47;6.47;;;4.00;;
11121;SDS011;5615;49.304;10.576;2023-04-03T04:05:13;5.63;;;4.20;;
11121;SDS011;5615;49.304;10.576;2023-04-03T04:07:41;4.10;;;3.40;;
11121;SDS011;5615;49.304;10.576;2023-04-03T04:10:08;7.07;;;4.03;;
11121;SDS011;5615;49.304;10.576;2023-04-03T04:12:35;7.43;;;4.30;;
11121;SDS011;5615;49.304;10.576;2023-04-03T04:15:02;4.80;;;4.30;;
11121;SDS011;5615;49.304;10.576;2023-04-03T04:17:29;5.10;;;4.00;;
11121;SDS011;5615;49.304;10.576;2023-04-03T04:19:55;5.57;;;4.13;;
11121;SDS011;5615;49.304;10.576;2023-04-03T04:22:22;5.97;;;4.20;;
11121;SDS011;5615;49.304;10.576;2023-04-03T04:24:50;7.73;;;4.20;;
11121;SDS011;5615;49.304;10.576;2023-04-03T04:27:16;5.63;;;4.10;;
11121;SDS011;5615;49.304;10.576;2023-04-03T04:29:43;9.10;;;4.30;;
11121;SDS011;5615;49.304;10.576;2023-04-03T04:32:09;5.57;;;4.97;;
11121;SDS011;5615;49.304;10.576;2023-04-03T04:34:36;5.77;;;4.77;;
11121;SDS011;5615;49.304;10.576;2023-04-03T04:37:03;5.80;;;4.47;;
11121;SDS011;5615;49.304;10.576;2023-04-03T04:39:29;6.83;;;4.70;;
11121;SDS011;5615;49.304;10.576;2023-04-03T04:41:57;7.07;;;4.83;;
11121;SDS011;5615;49.304;10.576;2023-04-03T04:44:24;7.77;;;4.50;;
11121;SDS011;5615;49.304;10.576;2023-04-03T04:46:52;8.50;;;4.67;;
11121;SDS011;5615;49.304;10.576;2023-04-03T04:49:18;6.07;;;4.63;;
11121;SDS011;5615;49.304;10.576;2023-04-03T04:51:45;7.47;;;5.17;;
11121;SDS011;5615;49.304;10.576;2023-04-03T04:54:11;7.23;;;4.70;;
11121;SDS011;5615;49.304;10.576;2023-04-03T04:56:38;8.37;;;5.30;;
11121;SDS011;5615;49.304;10.576;2023-04-03T04:59:06;9.63;;;5.47;;
11121;SDS011;5615;49.304;10.576;2023-04-03T05:01:33;7.13;;;5.77;;
11121;SDS011;5615;49.304;10.576;2023-04-03T05:04:00;7.53;;;4.97;;
11121;SDS011;5615;49.304;10.576;2023-04-03T05:06:27;7.17;;;5.40;;
11121;SDS011;5615;49.304;10.576;2023-04-03T05:08:55;11.10;;;5.73;;
11121;SDS011;5615;49.304;10.576;2023-04-03T05:11:21;8.57;;;5.47;;
11121;SDS011;5615;49.304;10.576;2023-04-03T05:13:48;8.70;;;5.57;;
11121;SDS011;5615;49.304;10.576;2023-04-03T05:16:16;11.97;;;5.80;;
11121;SDS011;5615;49.304;10.576;2023-04-03T05:18:43;8.17;;;4.80;;
11121;SDS011;5615;49.304;10.576;2023-04-03T05:21:10;6.93;;;5.67;;
11121;SDS011;5615;49.304;10.576;2023-04-03T05:23:36;7.80;;;5.60;;
11121;SDS011;5615;49.304;10.576;2023-04-03T05:26:03;7.07;;;5.70;;
11121;SDS011;5615;49.304;10.576;2023-04-03T05:28:30;7.80;;;5.63;;
11121;SDS011;5615;49.304;10.576;2023-04-03T05:30:58;8.50;;;5.60;;
11121;SDS011;5615;49.304;10.576;2023-04-03T05:33:26;8.47;;;5.80;;
11121;SDS011;5615;49.304;10.576;2023-04-03T05:35:53;8.33;;;5.63;;
11121;SDS011;5615;49.304;10.576;2023-04-03T05:38:20;6.97;;;5.77;;
11121;SDS011;5615;49.304;10.576;2023-04-03T05:40:47;8.70;;;6.17;;
11121;SDS011;5615;49.304;10.576;2023-04-03T05:43:13;12.83;;;6.53;;
11121;SDS011;5615;49.304;10.576;2023-04-03T05:45:40;8.30;;;6.50;;
11121;SDS011;5615;49.304;10.576;2023-04-03T05:48:07;10.57;;;7.43;;
11121;SDS011;5615;49.304;10.576;2023-04-03T05:50:35;9.73;;;6.40;;
11121;SDS011;5615;49.304;10.576;2023-04-03T05:53:06;10.43;;;6.80;;
11121;SDS011;5615;49.304;10.576;2023-04-03T05:55:36;10.20;;;5.77;;
11121;SDS011;5615;49.304;10.576;2023-04-03T05:58:02;9.07;;;5.97;;
11121;SDS011;5615;49.304;10.576;2023-04-03T06:00:29;8.70;;;6.13;;
11121;SDS011;5615;49.304;10.576;2023-04-03T06:02:56;10.00;;;7.70;;
11121;SDS011;5615;49.304;10.576;2023-04-03T06:05:23;9.57;;;6.40;;
11121;SDS011;5615;49.304;10.576;2023-04-03T06:07:51;16.57;;;5.93;;
11121;SDS011;5615;49.304;10.576;2023-04-03T06:10:17;9.67;;;6.43;;
11121;SDS011;5615;49.304;10.576;2023-04-03T06:12:45;7.27;;;5.43;;
11121;SDS011;5615;49.304;10.576;2023-04-03T06:15:11;5.97;;;4.23;;
11121;SDS011;5615;49.304;10.576;2023-04-03T06:17:38;6.03;;;5.07;;
11121;SDS011;5615;49.304;10.576;2023-04-03T06:20:05;7.97;;;5.50;;
11121;SDS011;5615;49.304;10.576;2023-04-03T06:22:32;14.60;;;5.83;;
11121;SDS011;5615;49.304;10.576;2023-04-03T06:25:00;22.27;;;8.50;;
11121;SDS011;5615;49.304;10.576;2023-04-03T06:27:27;14.63;;;7.03;;
11121;SDS011;5615;49.304;10.576;2023-04-03T06:29:54;19.70;;;7.67;;
11121;SDS011;5615;49.304;10.576;2023-04-03T06:32:20;10.20;;;4.47;;
11121;SDS011;5615;49.304;10.576;2023-04-03T06:34:47;11.30;;;4.13;;
11121;SDS011;5615;49.304;10.576;2023-04-03T06:37:14;15.73;;;5.73;;
11121;SDS011;5615;49.304;10.576;2023-04-03T06:39:42;12.43;;;4.43;;
11121;SDS011;5615;49.304;10.576;2023-04-03T06:42:11;13.97;;;5.27;;
11121;SDS011;5615;49.304;10.576;2023-04-03T06:44:38;10.27;;;4.97;;
11121;SDS011;5615;49.304;10.576;2023-04-03T06:47:04;10.40;;;4.87;;
11121;SDS011;5615;49.304;10.576;2023-04-03T06:49:31;7.03;;;5.27;;
11121;SDS011;5615;49.304;10.576;2023-04-03T06:51:58;6.30;;;4.03;;
11121;SDS011;5615;49.304;10.576;2023-04-03T06:54:25;7.97;;;4.77;;
11121;SDS011;5615;49.304;10.576;2023-04-03T06:56:51;6.23;;;3.87;;
11121;SDS011;5615;49.304;10.576;2023-04-03T06:59:19;5.00;;;3.87;;
11121;SDS011;5615;49.304;10.576;2023-04-03T07:01:46;6.60;;;4.23;;
11121;SDS011;5615;49.304;10.576;2023-04-03T07:04:12;11.20;;;4.30;;
11121;SDS011;5615;49.304;10.576;2023-04-03T07:06:39;10.03;;;3.67;;
11121;SDS011;5615;49.304;10.576;2023-04-03T07:09:06;3.50;;;3.17;;
11121;SDS011;5615;49.304;10.576;2023-04-03T07:11:34;12.57;;;4.27;;
11121;SDS011;5615;49.304;10.576;2023-04-03T07:14:01;4.73;;;3.37;;
11121;SDS011;5615;49.304;10.576;2023-04-03T07:16:29;4.73;;;3.00;;
11121;SDS011;5615;49.304;10.576;2023-04-03T07:18:56;7.53;;;3.20;;
11121;SDS011;5615;49.304;10.576;2023-04-03T07:21:23;6.13;;;4.37;;
11121;SDS011;5615;49.304;10.576;2023-04-03T07:23:50;6.80;;;4.30;;
11121;SDS011;5615;49.304;10.576;2023-04-03T07:26:16;8.60;;;3.83;;
11121;SDS011;5615;49.304;10.576;2023-04-03T07:28:43;8.17;;;5.63;;
11121;SDS011;5615;49.304;10.576;2023-04-03T07:31:12;9.57;;;4.57;;
11121;SDS011;5615;49.304;10.576;2023-04-03T07:33:41;9.10;;;5.17;;
11121;SDS011;5615;49.304;10.576;2023-04-03T07:36:09;8.37;;;3.93;;
11121;SDS011;5615;49.304;10.576;2023-04-03T07:38:40;4.77;;;3.27;;
11121;SDS011;5615;49.304;10.576;2023-04-03T07:41:06;8.50;;;3.60;;
11121;SDS011;5615;49.304;10.576;2023-04-03T07:43:37;5.87;;;4.27;;
11121;SDS011;5615;49.304;10.576;2023-04-03T07:46:04;7.40;;;4.40;;
11121;SDS011;5615;49.304;10.576;2023-04-03T07:48:31;7.03;;;3.70;;
11121;SDS011;5615;49.304;10.576;2023-04-03T07:51:00;5.27;;;3.60;;
11121;SDS011;5615;49.304;10.576;2023-04-03T07:53:28;8.13;;;3.80;;
11121;SDS011;5615;49.304;10.576;2023-04-03T07:55:56;8.73;;;3.10;;
11121;SDS011;5615;49.304;10.576;2023-04-03T07:58:23;4.97;;;3.27;;
11121;SDS011;5615;49.304;10.576;2023-04-03T08:00:50;6.77;;;3.93;;
11121;SDS011;5615;49.304;10.576;2023-04-03T08:03:17;4.13;;;3.43;;
11121;SDS011;5615;49.304;10.576;2023-04-03T08:05:44;5.53;;;4.67;;
11121;SDS011;5615;49.304;10.576;2023-04-03T08:08:14;7.87;;;3.53;;
11121;SDS011;5615;49.304;10.576;2023-04-03T08:10:42;4.97;;;3.40;;
11121;SDS011;5615;49.304;10.576;2023-04-03T08:13:09;4.93;;;3.60;;
11121;SDS011;5615;49.304;10.576;2023-04-03T08:15:36;4.70;;;3.53;;
11121;SDS011;5615;49.304;10.576;2023-04-03T08:18:03;7.83;;;4.47;;
11121;SDS011;5615;49.304;10.576;2023-04-03T08:20:29;6.00;;;4.23;;
11121;SDS011;5615;49.304;10.576;2023-04-03T08:22:56;6.90;;;3.60;;
11121;SDS011;5615;49.304;10.576;2023-04-03T08:25:24;6.50;;;3.80;;
11121;SDS011;5615;49.304;10.576;2023-04-03T08:27:50;6.10;;;3.87;;
11121;SDS011;5615;49.304;10.576;2023-04-03T08:30:17;4.60;;;3.50;;
11121;SDS011;5615;49.304;10.576;2023-04-03T08:32:44;4.43;;;3.50;;
11121;SDS011;5615;49.304;10.576;2023-04-03T08:35:11;8.13;;;3.80;;
11121;SDS011;5615;49.304;10.576;2023-04-03T08:37:38;8.67;;;3.90;;
11121;SDS011;5615;49.304;10.576;2023-04-03T08:40:06;4.67;;;3.50;;
11121;SDS011;5615;49.304;10.576;2023-04-03T08:42:41;7.07;;;3.80;;
11121;SDS011;5615;49.304;10.576;2023-04-03T08:45:17;4.60;;;3.40;;
11121;SDS011;5615;49.304;10.576;2023-04-03T08:47:52;4.77;;;3.73;;
11121;SDS011;5615;49.304;10.576;2023-04-03T08:50:26;6.77;;;4.00;;
11121;SDS011;5615;49.304;10.576;2023-04-03T08:52:56;5.30;;;3.67;;
11121;SDS011;5615;49.304;10.576;2023-04-03T08:55:25;6.73;;;4.43;;
11121;SDS011;5615;49.304;10.576;2023-04-03T08:57:59;8.20;;;4.67;;
11121;SDS011;5615;49.304;10.576;2023-04-03T09:00:28;5.00;;;4.00;;
11121;SDS011;5615;49.304;10.576;2023-04-03T09:02:58;8.87;;;4.50;;
11121;SDS011;5615;49.304;10.576;2023-04-03T09:05:29;6.23;;;4.10;;
11121;SDS011;5615;49.304;10.576;2023-04-03T09:08:04;4.63;;;3.57;;
11121;SDS011;5615;49.304;10.576;2023-04-03T09:10:34;4.80;;;3.00;;
11121;SDS011;5615;49.304;10.576;2023-04-03T09:13:05;9.23;;;5.53;;
11121;SDS011;5615;49.304;10.576;2023-04-03T09:15:37;5.33;;;4.00;;
11121;SDS011;5615;49.304;10.576;2023-04-03T09:18:04;5.87;;;5.00;;
11121;SDS011;5615;49.304;10.576;2023-04-03T09:20:39;6.73;;;5.00;;
11121;SDS011;5615;49.304;10.576;2023-04-03T09:23:18;6.17;;;4.53;;
11121;SDS011;5615;49.304;10.576;2023-04-03T09:25:51;7.70;;;4.07;;
11121;SDS011;5615;49.304;10.576;2023-04-03T09:28:24;5.27;;;4.03;;
11121;SDS011;5615;49.304;10.576;2023-04-03T09:30:51;5.80;;;3.27;;
11121;SDS011;5615;49.304;10.576;2023-04-03T09:33:17;8.93;;;5.10;;
11121;SDS011;5615;49.304;10.576;2023-04-03T09:35:46;5.73;;;3.77;;
11121;SDS011;5615;49.304;10.576;2023-04-03T09:38:16;7.77;;;5.40;;
11121;SDS011;5615;49.304;10.576;2023-04-03T09:40:44;9.60;;;6.00;;
11121;SDS011;5615;49.304;10.576;2023-04-03T09:43:25;10.60;;;7.30;;
11121;SDS011;5615;49.304;10.576;2023-04-03T09:45:54;6.10;;;5.03;;
11121;SDS011;5615;49.304;10.576;2023-04-03T09:48:23;5.37;;;3.60;;
11121;SDS011;5615;49.304;10.576;2023-04-03T09:50:55;6.53;;;3.70;;
11121;SDS011;5615;49.304;10.576;2023-04-03T09:53:28;5.30;;;4.10;;
11121;SDS011;5615;49.304;10.576;2023-04-03T09:55:57;3.57;;;3.10;;
11121;SDS011;5615;49.304;10.576;2023-04-03T09:58:27;6.43;;;3.90;;
11121;SDS011;5615;49.304;10.576;2023-04-03T10:00:56;7.43;;;4.80;;
11121;SDS011;5615;49.304;10.576;2023-04-03T10:03:25;4.97;;;3.40;;
11121;SDS011;5615;49.304;10.576;2023-04-03T10:05:54;6.20;;;3.70;;
11121;SDS011;5615;49.304;10.576;2023-04-03T10:08:23;10.43;;;4.63;;
11121;SDS011;5615;49.304;10.576;2023-04-03T10:11:05;6.37;;;3.10;;
11121;SDS011;5615;49.304;10.576;2023-04-03T10:13:49;4.70;;;3.30;;
11121;SDS011;5615;49.304;10.576;2023-04-03T10:16:17;9.80;;;6.30;;
11121;SDS011;5615;49.304;10.576;2023-04-03T10:18:46;7.53;;;4.27;;
11121;SDS011;5615;49.304;10.576;2023-04-03T10:21:27;3.87;;;2.83;;
11121;SDS011;5615;49.304;10.576;2023-04-03T10:24:03;2.90;;;2.27;;
11121;SDS011;5615;49.304;10.576;2023-04-03T10:26:38;3.50;;;2.40;;
11121;SDS011;5615;49.304;10.576;2023-04-03T10:29:15;4.50;;;2.87;;
11121;SDS011;5615;49.304;10.576;2023-04-03T10:31:49;5.80;;;3.30;;
11121;SDS011;5615;49.304;10.576;2023-04-03T10:34:24;4.53;;;2.87;;
11121;SDS011;5615;49.304;10.576;2023-04-03T10:36:55;4.73;;;3.03;;
11121;SDS011;5615;49.304;10.576;2023-04-03T10:39:32;5.70;;;2.73;;
11121;SDS011;5615;49.304;10.576;2023-04-03T10:42:05;4.57;;;3.40;;
11121;SDS011;5615;49.304;10.576;2023-04-03T10:44:42;6.40;;;3.43;;
11121;SDS011;5615;49.304;10.576;2023-04-03T10:47:19;7.23;;;2.90;;
11121;SDS011;5615;49.304;10.576;2023-04-03T10:49:51;5.47;;;3.27;;
11121;SDS011;5615;49.304;10.576;2023-04-03T10:52:29;6.17;;;3.10;;
11121;SDS011;5615;49.304;10.576;2023-04-03T10:55:06;4.60;;;2.57;;
11121;SDS011;5615;49.304;10.576;2023-04-03T10:57:57;3.13;;;2.60;;
11121;SDS011;5615;49.304;10.576;2023-04-03T11:00:29;6.97;;;3.80;;
11121;SDS011;5615;49.304;10.576;2023-04-03T11:03:03;4.83;;;2.97;;
11121;SDS011;5615;49.304;10.576;2023-04-03T11:05:34;3.60;;;3.00;;
11121;SDS011;5615;49.304;10.576;2023-04-03T11:08:07;3.90;;;2.90;;
11121;SDS011;5615;49.304;10.576;2023-04-03T11:10:41;5.07;;;2.80;;
11121;SDS011;5615;49.304;10.576;2023-04-03T11:13:11;4.33;;;2.73;;
11121;SDS011;5615;49.304;10.576;2023-04-03T11:15:42;5.23;;;2.70;;
11121;SDS011;5615;49.304;10.576;2023-04-03T11:18:10;5.87;;;3.37;;
11121;SDS011;5615;49.304;10.576;2023-04-03T11:20:41;5.23;;;3.77;;
11121;SDS011;5615;49.304;10.576;2023-04-03T11:23:14;7.10;;;3.93;;
11121;SDS011;5615;49.304;10.576;2023-04-03T11:25:47;3.50;;;3.20;;
11121;SDS011;5615;49.304;10.576;2023-04-03T11:28:17;6.30;;;3.87;;
11121;SDS011;5615;49.304;10.576;2023-04-03T11:30:46;4.40;;;3.45;;
11121;SDS011;5615;49.304;10.576;2023-04-03T11:33:20;3.58;;;2.60;;
11121;SDS011;5615;49.304;10.576;2023-04-03T11:36:03;5.68;;;2.92;;
11121;SDS011;5615;49.304;10.576;2023-04-03T11:38:34;4.75;;;2.50;;
11121;SDS011;5615;49.304;10.576;2023-04-03T11:41:06;4.05;;;2.72;;
11121;SDS011;5615;49.304;10.576;2023-04-03T11:43:37;4.30;;;3.00;;
11121;SDS011;5615;49.304;10.576;2023-04-03T11:46:08;4.93;;;2.90;;
11121;SDS011;5615;49.304;10.576;2023-04-03T11:48:42;2.92;;;2.58;;
11121;SDS011;5615;49.304;10.576;2023-04-03T12:03:33;3.28;;;2.47;;
11121;SDS011;5615;49.304;10.576;2023-04-03T12:09:23;4.78;;;2.83;;
11121;SDS011;5615;49.304;10.576;2023-04-03T12:11:53;3.45;;;2.75;;
11121;SDS011;5615;49.304;10.576;2023-04-03T12:14:22;3.97;;;2.75;;
11121;SDS011;5615;49.304;10.576;2023-04-03T12:16:50;3.20;;;2.70;;
11121;SDS011;5615;49.304;10.576;2023-04-03T12:19:29;3.65;;;2.70;;
11121;SDS011;5615;49.304;10.576;2023-04-03T12:22:09;3.72;;;2.85;;
11121;SDS011;5615;49.304;10.576;2023-04-03T12:24:40;3.22;;;2.58;;
11121;SDS011;5615;49.304;10.576;2023-04-03T12:27:16;3.47;;;3.13;;
11121;SDS011;5615;49.304;10.576;2023-04-03T12:30:14;5.05;;;3.00;;
11121;SDS011;5615;49.304;10.576;2023-04-03T12:32:47;4.70;;;2.60;;
11121;SDS011;5615;49.304;10.576;2023-04-03T12:35:38;3.45;;;2.55;;
11121;SDS011;5615;49.304;10.576;2023-04-03T12:41:12;3.50;;;3.00;;
11121;SDS011;5615;49.304;10.576;2023-04-03T12:43:50;3.00;;;2.53;;
11121;SDS011;5615;49.304;10.576;2023-04-03T12:46:33;2.67;;;2.45;;
11121;SDS011;5615;49.304;10.576;2023-04-03T12:49:10;3.55;;;2.70;;
11121;SDS011;5615;49.304;10.576;2023-04-03T12:51:45;3.60;;;2.90;;
11121;SDS011;5615;49.304;10.576;2023-04-03T12:54:13;3.33;;;2.67;;
11121;SDS011;5615;49.304;10.576;2023-04-03T12:56:42;4.50;;;2.83;;
11121;SDS011;5615;49.304;10.576;2023-04-03T12:59:15;3.95;;;3.00;;
11121;SDS011;5615;49.304;10.576;2023-04-03T13:01:44;4.25;;;3.03;;
11121;SDS011;5615;49.304;10.576;2023-04-03T13:04:20;3.95;;;2.80;;
11121;SDS011;5615;49.304;10.576;2023-04-03T13:06:48;6.93;;;2.97;;
11121;SDS011;5615;49.304;10.576;2023-04-03T13:09:20;3.83;;;2.85;;
11121;SDS011;5615;49.304;10.576;2023-04-03T13:11:48;3.53;;;2.83;;
11121;SDS011;5615;49.304;10.576;2023-04-03T13:14:18;3.08;;;2.78;;
11121;SDS011;5615;49.304;10.576;2023-04-03T13:16:53;3.13;;;2.83;;
11121;SDS011;5615;49.304;10.576;2023-04-03T13:19:20;3.70;;;2.97;;
11121;SDS011;5615;49.304;10.576;2023-04-03T13:21:51;3.30;;;3.00;;
11121;SDS011;5615;49.304;10.576;2023-04-03T13:24:24;4.35;;;3.00;;
11121;SDS011;5615;49.304;10.576;2023-04-03T13:26:51;3.08;;;2.75;;
11121;SDS011;5615;49.304;10.576;2023-04-03T13:29:21;3.00;;;2.40;;
11121;SDS011;5615;49.304;10.576;2023-04-03T13:31:52;2.70;;;2.50;;
11121;SDS011;5615;49.304;10.576;2023-04-03T13:34:20;4.85;;;2.90;;
11121;SDS011;5615;49.304;10.576;2023-04-03T13:36:56;5.57;;;2.80;;
11121;SDS011;5615;49.304;10.576;2023-04-03T13:39:25;2.97;;;2.65;;
11121;SDS011;5615;49.304;10.576;2023-04-03T13:41:54;5.20;;;2.60;;
11121;SDS011;5615;49.304;10.576;2023-04-03T13:44:30;3.22;;;2.53;;
11121;SDS011;5615;49.304;10.576;2023-04-03T13:47:00;3.60;;;2.75;;
11121;SDS011;5615;49.304;10.576;2023-04-03T13:49:41;4.40;;;2.90;;
11121;SDS011;5615;49.304;10.576;2023-04-03T13:52:22;4.20;;;2.88;;
11121;SDS011;5615;49.304;10.576;2023-04-03T13:54:53;19.10;;;4.03;;
11121;SDS011;5615;49.304;10.576;2023-04-03T13:57:22;4.47;;;2.60;;
11121;SDS011;5615;49.304;10.576;2023-04-03T13:59:54;4.13;;;2.53;;
11121;SDS011;5615;49.304;10.576;2023-04-03T14:02:22;3.20;;;2.60;;
11121;SDS011;5615;49.304;10.576;2023-04-03T14:04:55;3.97;;;2.92;;
11121;SDS011;5615;49.304;10.576;2023-04-03T14:07:27;3.58;;;2.60;;
11121;SDS011;5615;49.304;10.576;2023-04-03T14:09:55;3.55;;;2.75;;
11121;SDS011;5615;49.304;10.576;2023-04-03T14:12:24;2.90;;;2.40;;
11121;SDS011;5615;49.304;10.576;2023-04-03T14:14:52;3.75;;;2.45;;
11121;SDS011;5615;49.304;10.576;2023-04-03T14:17:21;2.80;;;2.50;;
11121;SDS011;5615;49.304;10.576;2023-04-03T14:19:50;3.38;;;2.10;;
11121;SDS011;5615;49.304;10.576;2023-04-03T14:22:20;2.30;;;2.10;;
11121;SDS011;5615;49.304;10.576;2023-04-03T14:24:49;2.53;;;2.33;;
11121;SDS011;5615;49.304;10.576;2023-04-03T14:27:18;3.50;;;2.38;;
11121;SDS011;5615;49.304;10.576;2023-04-03T14:29:47;3.55;;;2.88;;
11121;SDS011;5615;49.304;10.576;2023-04-03T14:32:19;3.13;;;2.50;;
11121;SDS011;5615;49.304;10.576;2023-04-03T14:34:47;4.03;;;2.90;;
11121;SDS011;5615;49.304;10.576;2023-04-03T14:37:15;2.60;;;2.40;;
11121;SDS011;5615;49.304;10.576;2023-04-03T14:39:44;3.13;;;2.17;;
11121;SDS011;5615;49.304;10.576;2023-04-03T14:42:13;2.20;;;2.00;;
11121;SDS011;5615;49.304;10.576;2023-04-03T14:44:42;2.40;;;2.13;;
11121;SDS011;5615;49.304;10.576;2023-04-03T14:47:10;3.13;;;2.58;;
11121;SDS011;5615;49.304;10.576;2023-04-03T14:49:37;3.50;;;2.40;;
11121;SDS011;5615;49.304;10.576;2023-04-03T14:52:04;3.50;;;2.50;;
11121;SDS011;5615;49.304;10.576;2023-04-03T14:54:31;3.97;;;2.63;;
11121;SDS011;5615;49.304;10.576;2023-04-03T14:56:58;3.40;;;2.70;;
11121;SDS011;5615;49.304;10.576;2023-04-03T14:59:27;4.38;;;2.67;;
11121;SDS011;5615;49.304;10.576;2023-04-03T15:01:55;2.72;;;2.50;;
11121;SDS011;5615;49.304;10.576;2023-04-03T15:04:22;3.20;;;2.85;;
11121;SDS011;5615;49.304;10.576;2023-04-03T15:06:51;3.08;;;2.78;;
11121;SDS011;5615;49.304;10.576;2023-04-03T15:09:19;3.95;;;2.20;;
11121;SDS011;5615;49.304;10.576;2023-04-03T15:11:47;3.05;;;2.40;;
11121;SDS011;5615;49.304;10.576;2023-04-03T15:14:15;3.78;;;2.60;;
11121;SDS011;5615;49.304;10.576;2023-04-03T15:16:43;3.72;;;2.70;;
11121;SDS011;5615;49.304;10.576;2023-04-03T15:19:10;3.13;;;2.47;;